createdAt,value
2023-02-11T00:00:39.688Z,102705.09
2023-02-11T00:01:41.130Z,102701.81
2023-02-11T00:02:42.853Z,102700.09
2023-02-11T00:03:44.313Z,102693.94
2023-02-11T00:04:45.789Z,102686.53
2023-02-11T00:05:57.395Z,102694.34
2023-02-11T00:06:58.805Z,102697.06
2023-02-11T00:08:00.303Z,102694.47
2023-02-11T00:09:02.140Z,102692.75
2023-02-11T00:10:07.751Z,102699.63
2023-02-11T00:11:13.438Z,102690.50
2023-02-11T00:12:15.702Z,102692.91
2023-02-11T00:13:17.140Z,102707.81
2023-02-11T00:14:18.639Z,102697.38
2023-02-11T00:15:21.144Z,102700.63
2023-02-11T00:16:23.282Z,102694.59
2023-02-11T00:17:24.807Z,102700.81
2023-02-11T00:18:26.330Z,102709.19
2023-02-11T00:19:27.753Z,102704.22
2023-02-11T00:20:29.232Z,102707.47
2023-02-11T00:21:30.677Z,102715.03
2023-02-11T00:22:32.156Z,102708.97
2023-02-11T00:23:33.560Z,102714.56
2023-02-11T00:24:36.509Z,102713.50
2023-02-11T00:25:43.036Z,102712.34
2023-02-11T00:26:44.873Z,102723.94
2023-02-11T00:27:46.272Z,102712.28
2023-02-11T00:28:49.285Z,102728.91
2023-02-11T00:29:50.752Z,102722.75
2023-02-11T00:30:56.281Z,102730.53
2023-02-11T00:31:57.935Z,102726.06
2023-02-11T00:32:59.501Z,102730.53
2023-02-11T00:34:00.984Z,102714.78
2023-02-11T00:35:02.411Z,102723.47
2023-02-11T00:36:06.222Z,102714.84
2023-02-11T00:37:07.767Z,102717.03
2023-02-11T00:38:09.258Z,102695.31
2023-02-11T00:39:10.840Z,102705.28
2023-02-11T00:40:12.424Z,102707.72
2023-02-11T00:41:15.079Z,102696.97
2023-02-11T00:42:16.802Z,102691.75
2023-02-11T00:43:18.296Z,102701.88
2023-02-11T00:44:19.748Z,102691.19
2023-02-11T00:45:21.549Z,102690.97
2023-02-11T00:46:23.751Z,102692.97
2023-02-11T00:47:25.248Z,102678.38
2023-02-11T00:48:26.821Z,102689.38
2023-02-11T00:49:28.230Z,102685.72
2023-02-11T00:50:29.707Z,102685.47
2023-02-11T00:51:31.286Z,102689.22
2023-02-11T00:52:33.000Z,102694.72
2023-02-11T00:53:35.086Z,102705.22
2023-02-11T00:54:36.405Z,102713.59
2023-02-11T00:55:37.916Z,102711.69
2023-02-11T00:56:39.480Z,102710.72
2023-02-11T00:57:41.347Z,102723.81
2023-02-11T00:58:42.747Z,102716.72
2023-02-11T00:59:44.272Z,102715.75
2023-02-11T01:00:45.762Z,102725.44
2023-02-11T01:01:47.221Z,102701.94
2023-02-11T01:02:48.650Z,102721.03
2023-02-11T01:03:50.190Z,102715.78
2023-02-11T01:04:51.696Z,102712.00
2023-02-11T01:05:53.574Z,102707.16
2023-02-11T01:06:55.011Z,102708.09
2023-02-11T01:07:56.469Z,102699.09
2023-02-11T01:08:57.947Z,102682.81
2023-02-11T01:09:59.450Z,102699.25
2023-02-11T01:11:06.668Z,102693.88
2023-02-11T01:12:08.085Z,102693.72
2023-02-11T01:13:09.947Z,102692.75
2023-02-11T01:14:11.388Z,102693.59
2023-02-11T01:15:15.525Z,102690.75
2023-02-11T01:16:17.917Z,102685.09
2023-02-11T01:17:19.415Z,102684.81
2023-02-11T01:18:20.892Z,102687.03
2023-02-11T01:19:22.457Z,102675.22
2023-02-11T01:20:26.802Z,102670.38
2023-02-11T01:21:28.260Z,102673.53
2023-02-11T01:22:29.787Z,102670.25
2023-02-11T01:23:31.256Z,102673.78
2023-02-11T01:24:32.800Z,102671.31
2023-02-11T01:25:34.256Z,102668.78
2023-02-11T01:26:35.793Z,102659.81
2023-02-11T01:27:37.905Z,102652.47
2023-02-11T01:28:39.994Z,102645.50
2023-02-11T01:29:41.526Z,102635.66
2023-02-11T01:30:43.028Z,102643.75
2023-02-11T01:31:44.537Z,102634.69
2023-02-11T01:32:45.957Z,102641.84
2023-02-11T01:33:47.446Z,102630.78
2023-02-11T01:34:48.870Z,102638.09
2023-02-11T01:35:51.543Z,102632.13
2023-02-11T01:36:58.231Z,102631.81
2023-02-11T01:37:59.656Z,102633.56
2023-02-11T01:39:01.124Z,102637.53
2023-02-11T01:40:05.330Z,102640.97
2023-02-11T01:41:10.629Z,102630.22
2023-02-11T01:42:17.084Z,102626.03
2023-02-11T01:43:18.906Z,102636.81
2023-02-11T01:44:36.815Z,102627.84
2023-02-11T01:45:47.329Z,102641.91
2023-02-11T01:46:48.867Z,102632.84
2023-02-11T01:47:50.277Z,102634.69
2023-02-11T01:48:59.758Z,102628.44
2023-02-11T01:50:02.000Z,102619.63
2023-02-11T01:51:14.260Z,102619.94
2023-02-11T01:52:24.948Z,102609.91
2023-02-11T01:53:47.760Z,102618.09
2023-02-11T01:55:18.261Z,102612.75
2023-02-11T01:56:39.524Z,102617.63
2023-02-11T01:57:44.714Z,102578.22
2023-02-11T01:58:48.955Z,102596.22
2023-02-11T02:00:02.260Z,102594.53
2023-02-11T02:01:06.627Z,102597.13
2023-02-11T02:02:12.750Z,102593.63
2023-02-11T02:03:22.503Z,102598.41
2023-02-11T02:04:31.219Z,102601.41
2023-02-11T02:05:41.595Z,102591.50
2023-02-11T02:06:59.483Z,102601.28
2023-02-11T02:08:17.683Z,102603.19
2023-02-11T02:09:31.732Z,102588.56
2023-02-11T02:10:35.387Z,102598.16
2023-02-11T02:11:37.436Z,102579.16
2023-02-11T02:12:38.916Z,102593.81
2023-02-11T02:13:40.481Z,102590.91
2023-02-11T02:14:42.376Z,102589.66
2023-02-11T02:15:52.055Z,102595.91
2023-02-11T02:16:53.842Z,102593.47
2023-02-11T02:18:22.769Z,102600.56
2023-02-11T02:19:30.145Z,102598.84
2023-02-11T02:20:43.080Z,102595.03
2023-02-11T02:21:56.564Z,102590.53
2023-02-11T02:23:14.063Z,102575.09
2023-02-11T02:25:00.977Z,102576.91
2023-02-11T02:26:26.563Z,102567.59
2023-02-11T02:27:37.858Z,102588.75
2023-02-11T02:29:00.935Z,102587.59
2023-02-11T02:30:11.528Z,102588.84
2023-02-11T02:31:41.906Z,102582.47
2023-02-11T02:33:20.530Z,102583.34
2023-02-11T02:34:36.303Z,102582.47
2023-02-11T02:35:56.541Z,102582.75
2023-02-11T02:37:08.210Z,102583.69
2023-02-11T02:38:21.411Z,102583.53
2023-02-11T02:39:29.190Z,102578.41
2023-02-11T02:40:41.041Z,102581.59
2023-02-11T02:41:43.879Z,102581.88
2023-02-11T02:42:46.846Z,102582.84
2023-02-11T02:43:50.495Z,102576.34
2023-02-11T02:44:53.178Z,102569.03
2023-02-11T02:45:54.685Z,102570.84
2023-02-11T02:46:56.637Z,102571.34
2023-02-11T02:47:58.334Z,102567.78
2023-02-11T02:49:00.791Z,102564.84
2023-02-11T02:50:03.870Z,102565.72
2023-02-11T02:51:26.932Z,102555.78
2023-02-11T02:52:57.617Z,102555.91
2023-02-11T02:54:20.901Z,102554.88
2023-02-11T02:55:57.764Z,102552.06
2023-02-11T02:57:28.597Z,102555.19
2023-02-11T02:58:58.469Z,102559.53
2023-02-11T03:00:29.644Z,102558.38
2023-02-11T03:01:45.449Z,102571.22
2023-02-11T03:02:50.003Z,102562.34
2023-02-11T03:04:08.800Z,102559.72
2023-02-11T03:05:18.667Z,102552.25
2023-02-11T03:06:35.372Z,102548.69
2023-02-11T03:08:01.539Z,102549.78
2023-02-11T03:09:06.020Z,102551.50
2023-02-11T03:10:19.398Z,102546.09
2023-02-11T03:11:23.093Z,102541.72
2023-02-11T03:12:27.656Z,102538.22
2023-02-11T03:13:33.582Z,102543.50
2023-02-11T03:14:36.099Z,102532.63
2023-02-11T03:15:52.572Z,102540.97
2023-02-11T03:16:58.176Z,102539.25
2023-02-11T03:18:01.880Z,102537.19
2023-02-11T03:19:15.400Z,102533.75
2023-02-11T03:20:20.257Z,102531.25
2023-02-11T03:21:23.115Z,102531.78
2023-02-11T03:22:34.966Z,102538.31
2023-02-11T03:23:56.367Z,102527.53
2023-02-11T03:24:57.909Z,102528.47
2023-02-11T03:26:13.977Z,102535.72
2023-02-11T03:27:25.215Z,102536.56
2023-02-11T03:28:35.601Z,102533.88
2023-02-11T03:30:21.929Z,102535.72
2023-02-11T03:31:32.890Z,102542.75
2023-02-11T03:32:41.340Z,102533.88
2023-02-11T03:34:04.613Z,102549.09
2023-02-11T03:35:15.421Z,102543.59
2023-02-11T03:36:28.450Z,102542.50
2023-02-11T03:37:40.054Z,102541.22
2023-02-11T03:38:48.952Z,102541.78
2023-02-11T03:40:15.362Z,102547.28
2023-02-11T03:41:20.522Z,102546.38
2023-02-11T03:42:26.172Z,102548.34
2023-02-11T03:43:40.151Z,102545.44
2023-02-11T03:44:51.572Z,102552.59
2023-02-11T03:45:55.333Z,102556.88
2023-02-11T03:46:57.168Z,102549.28
2023-02-11T03:48:11.617Z,102545.44
2023-02-11T03:49:17.164Z,102542.69
2023-02-11T03:50:21.053Z,102539.94
2023-02-11T03:51:25.302Z,102532.06
2023-02-11T03:52:27.824Z,102540.97
2023-02-11T03:53:29.271Z,102538.47
2023-02-11T03:54:31.162Z,102539.94
2023-02-11T03:55:36.793Z,102544.63
2023-02-11T03:56:47.172Z,102536.44
2023-02-11T03:57:49.013Z,102541.59
2023-02-11T03:58:50.847Z,102538.09
2023-02-11T03:59:55.357Z,102532.16
2023-02-11T04:00:56.835Z,102538.63
2023-02-11T04:01:59.543Z,102542.31
2023-02-11T04:03:01.113Z,102547.75
2023-02-11T04:04:02.720Z,102544.09
2023-02-11T04:05:06.655Z,102543.28
2023-02-11T04:06:08.316Z,102533.44
2023-02-11T04:07:11.781Z,102548.03
2023-02-11T04:08:13.507Z,102539.84
2023-02-11T04:09:15.152Z,102531.84
2023-02-11T04:10:16.838Z,102526.16
2023-02-11T04:11:18.533Z,102529.88
2023-02-11T04:12:20.476Z,102536.94
2023-02-11T04:13:22.375Z,102533.25
2023-02-11T04:14:23.861Z,102529.63
2023-02-11T04:15:25.575Z,102532.50
2023-02-11T04:16:27.148Z,102523.81
2023-02-11T04:17:28.593Z,102523.88
2023-02-11T04:18:30.000Z,102527.50
2023-02-11T04:19:31.582Z,102528.41
2023-02-11T04:20:33.101Z,102523.91
2023-02-11T04:21:34.522Z,102533.09
2023-02-11T04:22:36.565Z,102531.16
2023-02-11T04:23:38.029Z,102536.66
2023-02-11T04:24:39.569Z,102542.09
2023-02-11T04:25:40.984Z,102539.47
2023-02-11T04:26:42.624Z,102530.22
2023-02-11T04:27:44.041Z,102535.16
2023-02-11T04:28:45.464Z,102523.47
2023-02-11T04:29:46.910Z,102536.28
2023-02-11T04:30:51.006Z,102538.22
2023-02-11T04:31:52.458Z,102529.88
2023-02-11T04:32:54.423Z,102531.72
2023-02-11T04:33:56.502Z,102527.59
2023-02-11T04:34:57.824Z,102528.50
2023-02-11T04:35:59.257Z,102530.91
2023-02-11T04:37:00.713Z,102524.50
2023-02-11T04:38:02.146Z,102520.25
2023-02-11T04:39:04.645Z,102512.00
2023-02-11T04:40:06.694Z,102508.78
2023-02-11T04:41:08.136Z,102522.59
2023-02-11T04:42:09.590Z,102526.91
2023-02-11T04:43:11.101Z,102519.88
2023-02-11T04:44:12.646Z,102516.97
2023-02-11T04:45:14.148Z,102519.69
2023-02-11T04:46:15.654Z,102516.25
2023-02-11T04:47:18.115Z,102515.41
2023-02-11T04:48:19.517Z,102510.84
2023-02-11T04:49:20.967Z,102510.75
2023-02-11T04:50:22.368Z,102514.63
2023-02-11T04:51:25.217Z,102509.25
2023-02-11T04:52:26.666Z,102492.03
2023-02-11T04:53:28.194Z,102496.91
2023-02-11T04:54:29.598Z,102500.50
2023-02-11T04:55:30.972Z,102499.50
2023-02-11T04:56:32.417Z,102495.91
2023-02-11T04:57:33.852Z,102491.63
2023-02-11T04:58:35.336Z,102492.31
2023-02-11T04:59:36.846Z,102495.78
2023-02-11T05:00:38.327Z,102491.91
2023-02-11T05:01:40.182Z,102488.44
2023-02-11T05:02:41.638Z,102492.25
2023-02-11T05:03:43.214Z,102487.69
2023-02-11T05:04:44.764Z,102487.44
2023-02-11T05:05:46.326Z,102482.50
2023-02-11T05:06:47.782Z,102481.69
2023-02-11T05:07:49.316Z,102473.75
2023-02-11T05:08:51.021Z,102482.03
2023-02-11T05:09:52.523Z,102476.91
2023-02-11T05:10:54.164Z,102476.00
2023-02-11T05:11:55.647Z,102480.50
2023-02-11T05:12:57.051Z,102465.09
2023-02-11T05:13:58.689Z,102469.72
2023-02-11T05:15:00.181Z,102465.03
2023-02-11T05:16:01.613Z,102465.13
2023-02-11T05:17:03.340Z,102462.53
2023-02-11T05:18:04.922Z,102465.13
2023-02-11T05:19:06.347Z,102465.22
2023-02-11T05:20:08.346Z,102453.13
2023-02-11T05:21:12.530Z,102454.22
2023-02-11T05:22:14.006Z,102451.75
2023-02-11T05:23:15.423Z,102457.00
2023-02-11T05:24:16.833Z,102448.03
2023-02-11T05:25:18.541Z,102456.19
2023-02-11T05:26:20.086Z,102452.72
2023-02-11T05:27:21.586Z,102453.84
2023-02-11T05:28:23.179Z,102445.28
2023-02-11T05:29:24.657Z,102452.81
2023-02-11T05:30:26.288Z,102443.88
2023-02-11T05:31:27.760Z,102446.47
2023-02-11T05:32:29.278Z,102448.19
2023-02-11T05:33:30.856Z,102431.91
2023-02-11T05:34:32.260Z,102438.38
2023-02-11T05:35:33.714Z,102434.50
2023-02-11T05:36:35.152Z,102432.47
2023-02-11T05:37:36.786Z,102427.72
2023-02-11T05:38:38.925Z,102444.03
2023-02-11T05:39:40.277Z,102438.97
2023-02-11T05:40:41.881Z,102446.03
2023-02-11T05:41:43.343Z,102441.84
2023-02-11T05:42:44.806Z,102433.00
2023-02-11T05:43:50.941Z,102436.66
2023-02-11T05:44:52.358Z,102437.31
2023-02-11T05:45:54.180Z,102433.69
2023-02-11T05:46:55.791Z,102431.31
2023-02-11T05:47:57.612Z,102433.94
2023-02-11T05:48:59.048Z,102434.81
2023-02-11T05:50:00.488Z,102431.34
2023-02-11T05:51:01.895Z,102428.44
2023-02-11T05:52:03.685Z,102420.56
2023-02-11T05:53:06.729Z,102423.47
2023-02-11T05:54:08.422Z,102423.31
2023-02-11T05:55:09.991Z,102422.47
2023-02-11T05:56:11.655Z,102420.38
2023-02-11T05:57:13.828Z,102417.00
2023-02-11T05:58:15.312Z,102424.09
2023-02-11T05:59:16.961Z,102424.00
2023-02-11T06:00:18.672Z,102428.47
2023-02-11T06:01:20.177Z,102414.97
2023-02-11T06:02:21.709Z,102434.81
2023-02-11T06:03:23.210Z,102428.47
2023-02-11T06:04:24.633Z,102426.78
2023-02-11T06:05:26.521Z,102434.19
2023-02-11T06:06:27.975Z,102437.00
2023-02-11T06:07:29.441Z,102433.28
2023-02-11T06:08:30.866Z,102420.38
2023-02-11T06:09:32.288Z,102430.16
2023-02-11T06:10:34.225Z,102435.06
2023-02-11T06:11:35.605Z,102434.91
2023-02-11T06:12:38.002Z,102433.34
2023-02-11T06:13:39.429Z,102432.44
2023-02-11T06:14:40.950Z,102435.22
2023-02-11T06:15:42.386Z,102440.63
2023-02-11T06:16:43.883Z,102445.28
2023-02-11T06:17:45.340Z,102447.94
2023-02-11T06:18:46.738Z,102454.16
2023-02-11T06:19:48.134Z,102438.75
2023-02-11T06:20:49.568Z,102457.00
2023-02-11T06:21:51.013Z,102454.47
2023-02-11T06:22:52.453Z,102448.03
2023-02-11T06:23:53.870Z,102450.94
2023-02-11T06:25:01.690Z,102447.19
2023-02-11T06:26:05.804Z,102452.25
2023-02-11T06:27:07.235Z,102446.97
2023-02-11T06:28:10.308Z,102448.88
2023-02-11T06:29:12.894Z,102447.84
2023-02-11T06:30:14.708Z,102440.69
2023-02-11T06:31:16.477Z,102449.66
2023-02-11T06:32:39.533Z,102453.28
2023-02-11T06:33:40.249Z,102458.94
2023-02-11T06:34:41.672Z,102443.47
2023-02-11T06:35:43.097Z,102447.94
2023-02-11T06:36:45.234Z,102438.69
2023-02-11T06:37:47.878Z,102447.13
2023-02-11T06:38:49.705Z,102450.69
2023-02-11T06:39:51.213Z,102453.34
2023-02-11T06:40:52.648Z,102450.94
2023-02-11T06:41:54.460Z,102452.69
2023-02-11T06:42:55.905Z,102447.44
2023-02-11T06:43:57.336Z,102448.16
2023-02-11T06:44:58.739Z,102443.47
2023-02-11T06:46:00.221Z,102439.19
2023-02-11T06:47:01.659Z,102440.22
2023-02-11T06:48:03.137Z,102433.84
2023-02-11T06:49:04.548Z,102441.97
2023-02-11T06:50:07.518Z,102436.75
2023-02-11T06:51:11.662Z,102430.44
2023-02-11T06:52:13.055Z,102431.84
2023-02-11T06:53:14.535Z,102443.72
2023-02-11T06:54:16.022Z,102426.47
2023-02-11T06:55:17.459Z,102433.72
2023-02-11T06:56:20.884Z,102430.94
2023-02-11T06:57:22.326Z,102421.78
2023-02-11T06:58:23.811Z,102432.47
2023-02-11T06:59:25.326Z,102430.91
2023-02-11T07:00:26.907Z,102429.09
2023-02-11T07:01:28.382Z,102426.38
2023-02-11T07:02:29.936Z,102419.09
2023-02-11T07:03:36.041Z,102425.97
2023-02-11T07:04:37.963Z,102437.56
2023-02-11T07:05:42.827Z,102439.53
2023-02-11T07:06:44.246Z,102422.91
2023-02-11T07:07:45.666Z,102444.28
2023-02-11T07:08:48.014Z,102444.22
2023-02-11T07:09:49.467Z,102434.31
2023-02-11T07:10:50.903Z,102433.53
2023-02-11T07:11:52.433Z,102436.84
2023-02-11T07:12:53.854Z,102430.63
2023-02-11T07:14:00.195Z,102426.38
2023-02-11T07:15:02.586Z,102430.63
2023-02-11T07:16:08.947Z,102420.16
2023-02-11T07:17:10.386Z,102426.63
2023-02-11T07:18:14.341Z,102428.16
2023-02-11T07:19:16.185Z,102425.53
2023-02-11T07:20:17.784Z,102421.06
2023-02-11T07:21:21.073Z,102420.22
2023-02-11T07:22:22.544Z,102412.97
2023-02-11T07:23:24.010Z,102417.59
2023-02-11T07:24:25.542Z,102408.81
2023-02-11T07:25:26.966Z,102409.91
2023-02-11T07:26:29.205Z,102409.91
2023-02-11T07:27:30.686Z,102411.63
2023-02-11T07:28:33.802Z,102404.50
2023-02-11T07:29:35.220Z,102411.16
2023-02-11T07:30:36.680Z,102407.63
2023-02-11T07:31:38.370Z,102402.97
2023-02-11T07:32:39.818Z,102406.53
2023-02-11T07:33:42.138Z,102413.78
2023-02-11T07:34:43.579Z,102415.41
2023-02-11T07:35:45.023Z,102415.78
2023-02-11T07:36:46.425Z,102414.19
2023-02-11T07:37:47.908Z,102407.00
2023-02-11T07:38:49.945Z,102405.00
2023-02-11T07:39:51.234Z,102405.00
2023-02-11T07:40:52.726Z,102399.66
2023-02-11T07:41:54.617Z,102402.47
2023-02-11T07:42:56.040Z,102367.19
2023-02-11T07:43:57.529Z,102398.06
2023-02-11T07:44:58.983Z,102401.75
2023-02-11T07:46:04.498Z,102382.63
2023-02-11T07:47:06.015Z,102401.06
2023-02-11T07:48:07.502Z,102392.19
2023-02-11T07:49:09.235Z,102382.34
2023-02-11T07:50:10.677Z,102380.69
2023-02-11T07:51:21.313Z,102374.56
2023-02-11T07:52:22.750Z,102381.84
2023-02-11T07:53:24.170Z,102379.13
2023-02-11T07:54:25.635Z,102386.44
2023-02-11T07:55:27.078Z,102392.81
2023-02-11T07:56:29.508Z,102391.06
2023-02-11T07:57:30.929Z,102394.66
2023-02-11T07:58:33.407Z,102402.00
2023-02-11T07:59:34.849Z,102401.91
2023-02-11T08:00:36.359Z,102401.00
2023-02-11T08:01:38.099Z,102397.34
2023-02-11T08:02:39.549Z,102398.25
2023-02-11T08:03:42.803Z,102394.72
2023-02-11T08:04:46.674Z,102397.50
2023-02-11T08:05:48.160Z,102398.50
2023-02-11T08:06:49.666Z,102402.91
2023-02-11T08:07:53.114Z,102407.22
2023-02-11T08:08:54.764Z,102400.75
2023-02-11T08:09:56.154Z,102408.16
2023-02-11T08:10:57.978Z,102401.97
2023-02-11T08:12:00.143Z,102395.56
2023-02-11T08:13:01.609Z,102388.53
2023-02-11T08:14:03.164Z,102386.69
2023-02-11T08:15:04.821Z,102401.88
2023-02-11T08:16:07.402Z,102401.88
2023-02-11T08:17:08.820Z,102409.06
2023-02-11T08:18:10.239Z,102415.47
2023-02-11T08:19:16.958Z,102421.88
2023-02-11T08:20:18.490Z,102421.88
2023-02-11T08:21:20.627Z,102429.94
2023-02-11T08:22:22.019Z,102431.06
2023-02-11T08:23:23.454Z,102435.63
2023-02-11T08:24:24.910Z,102432.22
2023-02-11T08:25:26.332Z,102437.63
2023-02-11T08:26:31.662Z,102430.25
2023-02-11T08:27:34.387Z,102443.09
2023-02-11T08:28:38.130Z,102447.72
2023-02-11T08:29:39.538Z,102427.72
2023-02-11T08:30:40.986Z,102439.69
2023-02-11T08:31:46.615Z,102438.84
2023-02-11T08:32:48.153Z,102439.69
2023-02-11T08:33:50.058Z,102433.44
2023-02-11T08:34:52.565Z,102428.88
2023-02-11T08:35:54.460Z,102435.22
2023-02-11T08:36:56.040Z,102427.03
2023-02-11T08:37:57.476Z,102437.06
2023-02-11T08:39:17.331Z,102437.84
2023-02-11T08:40:19.840Z,102428.81
2023-02-11T08:41:21.330Z,102446.19
2023-02-11T08:42:22.773Z,102438.06
2023-02-11T08:43:24.204Z,102438.13
2023-02-11T08:44:25.847Z,102440.91
2023-02-11T08:45:27.594Z,102443.34
2023-02-11T08:46:29.114Z,102444.25
2023-02-11T08:47:31.362Z,102438.84
2023-02-11T08:48:33.077Z,102442.63
2023-02-11T08:49:34.622Z,102439.13
2023-02-11T08:50:39.158Z,102439.97
2023-02-11T08:51:41.021Z,102439.97
2023-02-11T08:52:43.005Z,102448.94
2023-02-11T08:53:45.473Z,102445.25
2023-02-11T08:54:47.185Z,102448.03
2023-02-11T08:55:53.512Z,102433.56
2023-02-11T08:56:55.018Z,102432.72
2023-02-11T08:57:56.723Z,102431.75
2023-02-11T08:58:58.268Z,102425.53
2023-02-11T08:59:59.741Z,102411.09
2023-02-11T09:01:01.212Z,102408.38
2023-02-11T09:02:02.716Z,102420.94
2023-02-11T09:03:04.330Z,102425.53
2023-02-11T09:04:05.874Z,102412.03
2023-02-11T09:05:09.075Z,102403.75
2023-02-11T09:06:12.261Z,102400.41
2023-02-11T09:07:13.718Z,102413.94
2023-02-11T09:08:15.918Z,102409.41
2023-02-11T09:09:18.531Z,102414.91
2023-02-11T09:10:19.957Z,102411.22
2023-02-11T09:11:27.412Z,102404.09
2023-02-11T09:12:28.851Z,102401.47
2023-02-11T09:13:31.566Z,102406.75
2023-02-11T09:14:33.257Z,102406.69
2023-02-11T09:15:35.364Z,102411.38
2023-02-11T09:16:36.921Z,102421.25
2023-02-11T09:17:38.360Z,102413.16
2023-02-11T09:18:39.784Z,102416.72
2023-02-11T09:19:41.280Z,102414.91
2023-02-11T09:20:42.772Z,102419.50
2023-02-11T09:21:44.537Z,102424.84
2023-02-11T09:22:46.020Z,102426.72
2023-02-11T09:23:48.182Z,102419.56
2023-02-11T09:24:49.692Z,102420.56
2023-02-11T09:25:51.394Z,102424.13
2023-02-11T09:26:53.017Z,102426.09
2023-02-11T09:27:54.447Z,102421.41
2023-02-11T09:28:56.292Z,102420.22
2023-02-11T09:29:57.709Z,102436.56
2023-02-11T09:30:59.249Z,102435.84
2023-02-11T09:32:00.839Z,102422.22
2023-02-11T09:33:02.765Z,102445.75
2023-02-11T09:34:05.894Z,102441.25
2023-02-11T09:35:07.506Z,102447.53
2023-02-11T09:36:09.267Z,102438.63
2023-02-11T09:37:10.742Z,102437.75
2023-02-11T09:38:12.209Z,102424.13
2023-02-11T09:39:17.322Z,102431.44
2023-02-11T09:40:19.943Z,102428.66
2023-02-11T09:41:24.152Z,102438.63
2023-02-11T09:43:11.639Z,102449.50
2023-02-11T09:44:23.280Z,102448.56
2023-02-11T09:45:27.436Z,102441.41
2023-02-11T09:46:36.837Z,102453.16
2023-02-11T09:47:49.067Z,102451.38
2023-02-11T09:48:53.691Z,102447.88
2023-02-11T09:50:12.466Z,102450.63
2023-02-11T09:51:48.599Z,102457.06
2023-02-11T09:53:01.922Z,102449.59
2023-02-11T09:54:11.868Z,102456.91
2023-02-11T09:55:42.665Z,102462.31
2023-02-11T09:56:44.146Z,102454.28
2023-02-11T09:57:45.594Z,102461.59
2023-02-11T09:58:47.241Z,102467.75
2023-02-11T09:59:49.349Z,102468.72
2023-02-11T10:00:53.827Z,102477.00
2023-02-11T10:02:02.067Z,102460.75
2023-02-11T10:03:18.788Z,102471.56
2023-02-11T10:04:42.154Z,102476.00
2023-02-11T10:06:00.407Z,102476.22
2023-02-11T10:07:29.505Z,102477.13
2023-02-11T10:08:38.871Z,102489.81
2023-02-11T10:09:58.730Z,102479.84
2023-02-11T10:11:08.830Z,102478.00
2023-02-11T10:12:49.628Z,102482.41
2023-02-11T10:14:23.492Z,102482.63
2023-02-11T10:15:58.220Z,102481.81
2023-02-11T10:16:59.643Z,102477.22
2023-02-11T10:18:28.123Z,102487.22
2023-02-11T10:20:08.151Z,102491.88
2023-02-11T10:21:22.740Z,102485.50
2023-02-11T10:22:40.493Z,102480.97
2023-02-11T10:23:46.932Z,102479.03
2023-02-11T10:25:00.196Z,102479.13
2023-02-11T10:26:02.566Z,102475.53
2023-02-11T10:27:29.043Z,102465.63
2023-02-11T10:28:34.041Z,102474.69
2023-02-11T10:29:36.639Z,102481.03
2023-02-11T10:30:43.187Z,102478.19
2023-02-11T10:31:46.492Z,102476.41
2023-02-11T10:32:54.644Z,102480.03
2023-02-11T10:34:07.055Z,102498.06
2023-02-11T10:35:19.387Z,102480.81
2023-02-11T10:36:24.067Z,102484.50
2023-02-11T10:37:25.518Z,102489.03
2023-02-11T10:38:27.686Z,102474.56
2023-02-11T10:39:29.149Z,102481.88
2023-02-11T10:40:31.737Z,102465.47
2023-02-11T10:41:38.445Z,102470.06
2023-02-11T10:42:44.279Z,102477.31
2023-02-11T10:43:45.707Z,102489.13
2023-02-11T10:44:59.182Z,102486.44
2023-02-11T10:46:04.591Z,102480.97
2023-02-11T10:47:24.005Z,102476.28
2023-02-11T10:48:40.626Z,102466.50
2023-02-11T10:49:44.337Z,102460.03
2023-02-11T10:50:45.828Z,102460.06
2023-02-11T10:51:47.344Z,102463.72
2023-02-11T10:52:49.031Z,102458.25
2023-02-11T10:54:06.140Z,102452.97
2023-02-11T10:55:10.308Z,102465.59
2023-02-11T10:56:19.699Z,102453.75
2023-02-11T10:57:21.316Z,102459.31
2023-02-11T10:58:45.068Z,102461.16
2023-02-11T10:59:47.168Z,102469.28
2023-02-11T11:00:52.981Z,102478.25
2023-02-11T11:02:00.576Z,102473.72
2023-02-11T11:03:04.765Z,102470.97
2023-02-11T11:04:06.603Z,102466.63
2023-02-11T11:05:20.868Z,102470.22
2023-02-11T11:06:33.428Z,102481.03
2023-02-11T11:07:35.166Z,102460.19
2023-02-11T11:08:45.174Z,102456.53
2023-02-11T11:09:54.137Z,102453.91
2023-02-11T11:11:08.957Z,102448.53
2023-02-11T11:12:31.758Z,102440.41
2023-02-11T11:13:36.353Z,102445.84
2023-02-11T11:14:37.800Z,102435.81
2023-02-11T11:15:39.296Z,102433.84
2023-02-11T11:16:53.529Z,102432.16
2023-02-11T11:18:22.005Z,102440.38
2023-02-11T11:19:25.775Z,102444.84
2023-02-11T11:20:29.744Z,102458.44
2023-02-11T11:21:40.185Z,102449.41
2023-02-11T11:22:43.212Z,102450.31
2023-02-11T11:23:59.915Z,102447.44
2023-02-11T11:25:01.562Z,102442.13
2023-02-11T11:26:07.569Z,102450.25
2023-02-11T11:27:18.987Z,102442.03
2023-02-11T11:28:25.137Z,102447.44
2023-02-11T11:29:39.482Z,102443.88
2023-02-11T11:30:43.044Z,102442.03
2023-02-11T11:31:56.849Z,102439.44
2023-02-11T11:32:59.212Z,102431.25
2023-02-11T11:34:14.761Z,102437.34
2023-02-11T11:35:32.959Z,102441.22
2023-02-11T11:36:38.588Z,102439.31
2023-02-11T11:37:40.144Z,102442.03
2023-02-11T11:38:57.476Z,102452.97
2023-02-11T11:40:03.045Z,102455.66
2023-02-11T11:41:34.279Z,102457.41
2023-02-11T11:42:38.827Z,102460.91
2023-02-11T11:43:40.371Z,102457.41
2023-02-11T11:44:41.802Z,102455.34
2023-02-11T11:45:58.085Z,102464.66
2023-02-11T11:47:11.871Z,102462.88
2023-02-11T11:48:22.573Z,102470.00
2023-02-11T11:49:35.926Z,102473.69
2023-02-11T11:50:43.349Z,102463.81
2023-02-11T11:52:15.389Z,102447.63
2023-02-11T11:53:23.021Z,102462.94
2023-02-11T11:54:27.637Z,102455.69
2023-02-11T11:55:38.332Z,102470.00
2023-02-11T11:56:51.006Z,102456.28
2023-02-11T11:57:52.543Z,102468.22
2023-02-11T11:58:54.546Z,102475.47
2023-02-11T11:59:58.086Z,102461.16
2023-02-11T12:01:29.706Z,102458.47
2023-02-11T12:02:59.877Z,102451.34
2023-02-11T12:04:17.485Z,102436.00
2023-02-11T12:05:39.175Z,102450.47
2023-02-11T12:07:07.325Z,102451.31
2023-02-11T12:08:20.882Z,102444.13
2023-02-11T12:09:26.840Z,102452.22
2023-02-11T12:10:39.583Z,102453.22
2023-02-11T12:11:49.942Z,102455.09
2023-02-11T12:13:19.134Z,102454.22
2023-02-11T12:14:32.865Z,102455.88
2023-02-11T12:15:59.035Z,102452.22
2023-02-11T12:17:24.549Z,102441.41
2023-02-11T12:18:36.068Z,102443.22
2023-02-11T12:19:56.487Z,102448.81
2023-02-11T12:20:57.873Z,102441.56
2023-02-11T12:22:17.637Z,102454.22
2023-02-11T12:23:48.761Z,102439.72
2023-02-11T12:25:18.978Z,102439.72
2023-02-11T12:26:21.875Z,102438.84
2023-02-11T12:27:29.372Z,102443.59
2023-02-11T12:28:56.014Z,102440.81
2023-02-11T12:30:12.308Z,102442.72
2023-02-11T12:31:31.765Z,102442.75